Time;durP1;ratioP1;P1;durP2;ratioP2;P2;SDS_P1;SDS_P2;PMS_P1;PMS_P2;Temp;Humidity;BMP_temperature;BMP_pressure;BME280_temperature;BME280_humidity;BME280_pressure;Samples;Min_cycle;Max_cycle;Signal;HPM_P1;HPM_P2
2022/06/22 00:00:33;;;;;;;8.00;1.70;;;;;;;17.41;40.32;99562.47;124246;1099;104323;-78
2022/06/22 00:03:11;;;;;;;3.20;1.57;;;;;;;17.37;40.54;99576.66;124688;1099;104197;-77
2022/06/22 00:05:50;;;;;;;2.87;1.87;;;;;;;17.32;41.14;99567.83;124341;1099;104395;-77
2022/06/22 00:08:27;;;;;;;1.57;1.40;;;;;;;17.27;41.10;99566.99;124327;1098;107081;-77
2022/06/22 00:11:07;;;;;;;4.33;1.63;;;;;;;17.22;41.46;99576.76;124587;1099;104232;-77
2022/06/22 00:13:39;;;;;;;5.90;1.40;;;;;;;17.16;41.64;99561.76;124275;1099;104162;-77
2022/06/22 00:16:20;;;;;;;3.40;1.70;;;;;;;17.11;42.02;99566.22;124177;1099;104227;-78
2022/06/22 00:18:54;;;;;;;4.37;1.70;;;;;;;17.07;41.48;99561.81;124142;1099;104333;-77
2022/06/22 00:21:30;;;;;;;2.12;1.65;;;;;;;17.03;42.13;99550.36;124780;1099;104318;-78
2022/06/22 00:24:04;;;;;;;2.23;1.57;;;;;;;17.02;41.87;99550.37;125449;1099;104230;-77
2022/06/22 00:26:48;;;;;;;4.93;1.93;;;;;;;17.01;41.93;99551.25;124534;1097;104191;-78
2022/06/22 00:29:25;;;;;;;3.10;1.80;;;;;;;16.99;41.79;99550.38;124442;1099;104271;-77
2022/06/22 00:32:14;;;;;;;4.60;1.60;;;;;;;16.95;41.85;99545.98;124982;1099;105120;-77
2022/06/22 00:34:46;;;;;;;4.17;1.57;;;;;;;16.91;42.74;99546.88;124410;1099;104335;-77
2022/06/22 00:37:24;;;;;;;2.40;1.70;;;;;;;16.87;43.10;99553.97;124813;1099;104248;-79
2022/06/22 00:40:00;;;;;;;7.13;1.70;;;;;;;16.80;42.27;99561.04;124710;1098;104312;-78
2022/06/22 00:42:42;;;;;;;3.50;1.50;;;;;;;16.76;42.50;99564.58;124402;1099;104242;-77
2022/06/22 00:45:25;;;;;;;2.70;1.60;;;;;;;16.70;43.11;99557.56;124248;1099;104229;-77
2022/06/22 00:48:03;;;;;;;3.10;1.70;;;;;;;16.67;42.71;99565.52;124488;1099;104265;-77
2022/06/22 00:50:42;;;;;;;2.77;1.83;;;;;;;16.64;42.75;99561.98;125226;1098;104264;-77
2022/06/22 00:53:23;;;;;;;2.50;1.30;;;;;;;16.61;42.71;99564.64;124292;1099;104249;-78
2022/06/22 00:55:59;;;;;;;5.70;1.97;;;;;;;16.58;42.86;99564.66;124372;1099;104428;-77
2022/06/22 00:58:37;;;;;;;3.97;1.70;;;;;;;16.56;43.02;99559.36;124498;1099;104271;-77
2022/06/22 01:01:23;;;;;;;3.23;1.83;;;;;;;16.52;43.22;99555.86;124867;1099;104258;-77
2022/06/22 01:04:02;;;;;;;3.80;1.73;;;;;;;16.52;43.63;99550.56;125035;1099;104229;-77
2022/06/22 01:06:41;;;;;;;5.13;1.90;;;;;;;16.52;43.74;99547.04;124827;1098;104335;-77
2022/06/22 01:09:21;;;;;;;4.07;2.13;;;;;;;16.50;43.73;99547.05;124624;1099;104232;-76
2022/06/22 01:15:08;;;;;;;1.70;1.60;;;;;;;16.51;43.55;99556.73;125257;1099;104322;-76
2022/06/22 01:17:51;;;;;;;2.83;1.67;;;;;;;16.52;43.44;99553.20;125049;1099;104392;-76
2022/06/22 01:20:32;;;;;;;3.00;1.90;;;;;;;16.57;43.67;99550.54;125532;1099;104146;-76
2022/06/22 01:23:50;;;;;;;5.73;1.80;;;;;;;16.59;43.99;99546.11;124995;1099;104297;-76
2022/06/22 01:26:39;;;;;;;5.47;1.93;;;;;;;16.58;43.39;99551.41;124280;1099;104271;-78
2022/06/22 01:29:15;;;;;;;2.80;1.70;;;;;;;16.55;43.32;99554.97;124670;1099;104336;-77
2022/06/22 01:31:56;;;;;;;4.87;2.20;;;;;;;16.51;43.58;99559.37;124897;1099;104210;-77
2022/06/22 01:34:38;;;;;;;4.00;1.57;;;;;;;16.52;43.81;99554.98;124776;1099;104270;-77
2022/06/22 01:37:17;;;;;;;9.27;2.10;;;;;;;16.54;43.41;99548.77;125542;1098;104354;-77
2022/06/22 01:39:58;;;;;;;5.90;1.73;;;;;;;16.63;44.18;99549.64;125937;1099;104653;-78
2022/06/22 01:42:36;;;;;;;3.70;1.80;;;;;;;16.67;44.31;99554.02;125201;1098;104425;-76
2022/06/22 01:45:17;;;;;;;4.10;1.73;;;;;;;16.67;43.63;99554.02;125429;1099;104242;-78
2022/06/22 01:47:56;;;;;;;1.83;1.50;;;;;;;16.65;43.66;99551.37;125442;1099;104219;-77
2022/06/22 01:50:35;;;;;;;6.53;1.80;;;;;;;16.67;43.65;99552.28;125642;1099;104245;-77
2022/06/22 01:53:15;;;;;;;4.93;1.87;;;;;;;16.71;44.22;99546.06;125701;1099;104712;-77
2022/06/22 01:55:51;;;;;;;3.93;2.07;;;;;;;16.75;43.61;99549.59;125923;1099;104287;-76
2022/06/22 01:58:37;;;;;;;3.60;1.70;;;;;;;16.81;43.44;99549.56;125743;1099;104243;-77
2022/06/22 02:01:16;;;;;;;5.20;1.90;;;;;;;16.84;43.44;99549.55;125504;1099;104162;-78
2022/06/22 02:04:02;;;;;;;8.30;1.97;;;;;;;16.81;43.72;99554.87;125324;1099;104364;-78
2022/06/22 02:09:54;;;;;;;5.57;1.90;;;;;;;16.68;43.82;99547.84;124869;1099;104373;-76
2022/06/22 02:12:39;;;;;;;3.97;1.80;;;;;;;16.63;44.00;99541.70;124726;1099;104261;-76
2022/06/22 02:15:25;;;;;;;3.47;1.80;;;;;;;16.59;44.23;99526.70;124681;1099;104297;-77
2022/06/22 02:18:02;;;;;;;3.43;1.90;;;;;;;16.56;44.08;99530.23;124656;1099;104315;-77
2022/06/22 02:20:42;;;;;;;3.40;1.70;;;;;;;16.54;44.39;99524.94;124562;1099;104406;-77
2022/06/22 02:23:21;;;;;;;4.50;1.90;;;;;;;16.53;44.59;99532.89;124672;1099;104370;-77
2022/06/22 02:26:10;;;;;;;4.70;1.80;;;;;;;16.51;44.18;99530.25;125220;1099;104236;-77
2022/06/22 02:28:43;;;;;;;3.83;2.03;;;;;;;16.48;44.40;99522.31;124846;1099;104233;-77
2022/06/22 02:31:17;;;;;;;5.92;1.82;;;;;;;16.45;45.01;99521.45;124812;1099;104342;-76
2022/06/22 02:33:49;;;;;;;;;;;;;;;16.40;45.39;99518.83;124481;1098;104293;-78
2022/06/22 02:36:23;;;;;;;4.10;2.00;;;;;;;16.39;44.46;99508.24;124794;1099;104405;-78
2022/06/22 02:38:58;;;;;;;3.93;1.80;;;;;;;16.36;44.17;99503.83;125350;1098;104410;-77
2022/06/22 02:44:33;;;;;;;5.73;1.97;;;;;;;16.39;45.20;99498.52;124879;1099;102129;-77
2022/06/22 02:47:22;;;;;;;6.93;2.10;;;;;;;16.41;45.00;99504.72;124813;1099;104397;-78
2022/06/22 02:49:59;;;;;;;2.50;1.80;;;;;;;16.44;45.05;99503.80;124652;1099;104323;-77
2022/06/22 02:52:38;;;;;;;3.57;1.70;;;;;;;16.44;45.04;99507.35;124615;1099;104345;-77
2022/06/22 02:55:16;;;;;;;4.70;1.80;;;;;;;16.45;44.75;99516.16;124722;1099;104265;-78
2022/06/22 02:57:57;;;;;;;7.00;2.03;;;;;;;16.44;44.50;99517.94;124982;1099;104156;-77
2022/06/22 03:00:33;;;;;;;4.53;1.80;;;;;;;16.40;45.54;99502.94;125370;1098;104341;-77
2022/06/22 03:03:13;;;;;;;4.27;1.77;;;;;;;16.38;45.77;99498.52;124946;1099;104332;-77
2022/06/22 03:05:48;;;;;;;6.13;2.70;;;;;;;16.37;45.38;99497.66;124954;1099;104258;-76
2022/06/22 03:08:21;;;;;;;5.90;1.77;;;;;;;16.39;45.16;99487.06;124545;1099;104251;-76
2022/06/22 03:11:00;;;;;;;4.83;2.02;;;;;;;16.42;44.89;99476.46;124911;1099;104795;-77
2022/06/22 03:13:38;;;;;;;4.57;1.80;;;;;;;16.45;44.89;99484.39;124840;1099;117752;-77
2022/06/22 03:16:17;;;;;;;2.15;1.70;;;;;;;16.46;44.93;99484.38;124982;1099;104344;-76
2022/06/22 03:18:50;;;;;;;8.67;2.40;;;;;;;16.49;45.07;99487.02;124990;1098;104242;-77
2022/06/22 03:21:22;;;;;;;5.90;1.97;;;;;;;16.54;45.33;99481.70;124357;1099;104370;-78
2022/06/22 03:24:00;;;;;;;5.63;1.83;;;;;;;16.60;45.34;99489.62;124640;1099;104273;-77
2022/06/22 03:26:38;;;;;;;6.30;2.03;;;;;;;16.62;45.63;99481.66;125124;1099;104352;-78
2022/06/22 03:29:17;;;;;;;4.93;2.10;;;;;;;16.66;45.72;99476.34;125073;1099;104323;-78
2022/06/22 03:31:54;;;;;;;5.77;1.90;;;;;;;16.69;45.47;99486.92;125220;1099;102745;-78
2022/06/22 03:34:29;;;;;;;5.13;1.97;;;;;;;16.72;45.59;99491.33;124982;1098;104262;-78
2022/06/22 03:37:07;;;;;;;7.53;2.20;;;;;;;16.76;45.50;99495.70;124930;1099;104431;-78
2022/06/22 03:39:48;;;;;;;4.77;2.00;;;;;;;16.81;45.96;99500.98;124790;1099;104267;-79
2022/06/22 03:42:25;;;;;;;5.40;1.80;;;;;;;16.83;45.79;99484.19;124369;1099;102995;-77
2022/06/22 03:45:03;;;;;;;6.70;1.90;;;;;;;16.85;45.63;99477.11;124481;1099;104306;-79
2022/06/22 03:47:39;;;;;;;2.17;1.70;;;;;;;16.92;45.98;99482.41;124046;1099;104248;-78
2022/06/22 03:50:20;;;;;;;3.60;2.00;;;;;;;16.97;45.94;99480.59;124284;1099;104655;-78
2022/06/22 03:52:55;;;;;;;3.80;1.60;;;;;;;17.01;45.24;99477.91;124003;1099;104201;-78
2022/06/22 03:55:32;;;;;;;4.43;2.03;;;;;;;17.07;45.44;99469.05;124153;1099;104354;-77
2022/06/22 03:58:09;;;;;;;2.90;1.80;;;;;;;17.10;45.62;99466.38;124048;1098;104357;-77
2022/06/22 04:00:43;;;;;;;6.80;2.20;;;;;;;17.14;45.24;99446.92;123999;1097;104258;-77
2022/06/22 04:03:18;;;;;;;6.83;1.77;;;;;;;17.22;44.93;99465.42;124216;1099;104334;-77
2022/06/22 04:05:52;;;;;;;6.13;1.80;;;;;;;17.24;44.97;99453.02;124006;1099;104283;-77
2022/06/22 04:08:28;;;;;;;4.57;2.07;;;;;;;17.25;45.33;99470.70;124043;1099;104367;-77
2022/06/22 04:11:05;;;;;;;3.95;1.90;;;;;;;17.27;44.89;99457.42;124177;1098;104243;-78
2022/06/22 04:13:43;;;;;;;7.77;2.17;;;;;;;17.32;45.26;99453.83;123715;1096;104283;-77
2022/06/22 04:16:18;;;;;;;3.37;2.10;;;;;;;17.37;45.35;99438.78;123771;1099;104338;-76
2022/06/22 04:19:02;;;;;;;5.10;2.10;;;;;;;17.41;44.93;99447.58;123794;1099;104356;-77
2022/06/22 04:21:48;;;;;;;8.47;2.20;;;;;;;17.46;44.75;99459.01;124763;1099;104393;-80
2022/06/22 04:24:26;;;;;;;9.20;2.17;;;;;;;17.48;44.79;99446.60;125147;1099;104293;-79
2022/06/22 04:27:02;;;;;;;7.83;1.70;;;;;;;17.51;44.74;99467.80;124246;1099;104271;-77
2022/06/22 04:29:39;;;;;;;11.63;1.90;;;;;;;17.55;44.47;99437.70;123886;1098;104405;-78
2022/06/22 04:32:19;;;;;;;4.20;1.80;;;;;;;17.52;44.44;99432.44;123878;1099;104322;-77
2022/06/22 04:34:56;;;;;;;11.03;2.10;;;;;;;17.61;44.70;99435.00;123800;1099;104398;-77
2022/06/22 04:37:37;;;;;;;2.90;1.80;;;;;;;17.67;44.42;99433.16;123870;1099;104258;-77
2022/06/22 04:40:22;;;;;;;3.30;1.90;;;;;;;17.69;44.60;99444.66;124038;1098;104377;-77
2022/06/22 04:42:58;;;;;;;4.60;1.80;;;;;;;17.69;44.28;99445.53;124004;1099;104245;-78
2022/06/22 04:45:34;;;;;;;6.03;1.77;;;;;;;17.74;44.23;99437.52;124131;1099;118489;-78
2022/06/22 04:48:13;;;;;;;6.57;2.20;;;;;;;17.76;44.17;99426.02;124162;1099;104361;-77
2022/06/22 04:50:46;;;;;;;6.30;2.30;;;;;;;17.78;43.89;99428.65;124263;1099;104249;-78
2022/06/22 04:53:24;;;;;;;3.57;1.63;;;;;;;17.81;44.16;99435.67;123938;1099;104648;-77
2022/06/22 04:56:00;;;;;;;12.13;2.23;;;;;;;17.86;43.82;99426.78;124379;1099;104309;-77
2022/06/22 04:58:44;;;;;;;6.00;1.85;;;;;;;17.90;43.90;99427.64;124664;1099;104172;-79
2022/06/22 05:01:23;;;;;;;3.10;1.67;;;;;;;17.96;44.29;99425.80;125047;1099;104237;-78
2022/06/22 05:04:10;;;;;;;7.13;1.93;;;;;;;18.01;43.59;99408.95;125057;1099;104284;-77
2022/06/22 05:06:50;;;;;;;5.70;1.53;;;;;;;18.06;43.58;99396.48;124935;1099;104242;-77
2022/06/22 05:09:27;;;;;;;8.75;1.85;;;;;;;18.13;43.60;99408.80;124557;1099;104265;-78
2022/06/22 05:12:02;;;;;;;6.73;1.87;;;;;;;18.17;43.35;99413.18;124599;1099;104195;-79
2022/06/22 05:14:39;;;;;;;5.05;1.60;;;;;;;18.20;43.04;99410.48;125250;1099;104195;-79
2022/06/22 05:17:20;;;;;;;6.17;1.80;;;;;;;18.24;42.42;99425.46;124513;1099;104300;-78
2022/06/22 05:19:57;;;;;;;7.47;1.80;;;;;;;18.25;42.13;99416.61;124295;1099;104302;-78
2022/06/22 05:22:31;;;;;;;6.07;2.20;;;;;;;18.27;41.62;99438.70;124522;1099;104185;-78
2022/06/22 05:25:06;;;;;;;9.83;2.77;;;;;;;18.28;41.53;99419.22;124408;1099;104232;-78
2022/06/22 05:27:57;;;;;;;6.43;2.07;;;;;;;18.33;41.36;99414.72;124432;1099;104390;-78
2022/06/22 05:30:37;;;;;;;16.70;2.07;;;;;;;18.39;41.40;99412.91;124637;1099;104734;-78
2022/06/22 05:33:13;;;;;;;9.77;1.80;;;;;;;18.43;41.52;99414.59;125827;1099;104188;-80
2022/06/22 05:35:54;;;;;;;7.87;1.63;;;;;;;18.47;41.65;99411.88;125768;1099;103520;-79
2022/06/22 05:38:27;;;;;;;10.47;1.83;;;;;;;18.55;41.62;99417.09;124810;1099;104271;-78
2022/06/22 05:41:04;;;;;;;7.87;1.87;;;;;;;18.64;40.89;99430.23;125747;1097;104160;-78
2022/06/22 05:43:44;;;;;;;7.90;1.73;;;;;;;18.72;41.19;99440.76;125949;1099;102425;-78
2022/06/22 05:46:21;;;;;;;11.63;1.83;;;;;;;18.72;40.45;99438.10;126011;1099;104153;-78
2022/06/22 05:49:00;;;;;;;25.30;3.20;;;;;;;18.71;40.87;99422.18;126152;1099;102509;-78
2022/06/22 05:51:48;;;;;;;11.73;1.93;;;;;;;18.75;40.99;99434.53;124799;1099;104217;-79
2022/06/22 05:54:38;;;;;;;14.87;2.22;;;;;;;18.83;40.12;99433.50;125377;1099;104239;-77
2022/06/22 06:00:15;;;;;;;7.57;1.80;;;;;;;19.01;40.04;99427.06;125555;1099;104220;-76
2022/06/22 06:03:02;;;;;;;12.40;2.10;;;;;;;19.12;39.85;99424.23;125559;1099;104277;-79
2022/06/22 06:06:13;;;;;;;10.53;1.53;;;;;;;19.28;39.68;99456.77;125816;1099;104195;-78
2022/06/22 06:09:02;;;;;;;12.60;1.60;;;;;;;19.52;39.47;99443.94;126202;1099;107863;-79
2022/06/22 06:11:51;;;;;;;9.80;1.77;;;;;;;19.69;39.61;99425.01;126391;1099;102297;-79
2022/06/22 06:14:34;;;;;;;8.27;1.70;;;;;;;19.77;38.98;99423.10;125907;1099;104248;-78
2022/06/22 06:17:36;;;;;;;17.37;2.30;;;;;;;19.75;38.61;99422.23;126672;1099;102284;-80
2022/06/22 06:20:28;;;;;;;5.83;1.90;;;;;;;19.64;38.74;99435.73;126196;1099;103210;-78
2022/06/22 06:23:10;;;;;;;8.88;1.75;;;;;;;19.64;39.34;99426.89;126266;1099;102628;-78
2022/06/22 06:29:01;;;;;;;7.83;1.70;;;;;;;19.72;38.45;99444.45;126011;1099;104284;-78
2022/06/22 06:31:56;;;;;;;4.27;1.63;;;;;;;19.78;38.24;99426.66;125994;1099;104206;-77
2022/06/22 06:34:40;;;;;;;12.43;3.07;;;;;;;19.76;38.50;99410.69;126159;1098;102451;-78
2022/06/22 06:37:21;;;;;;;12.60;2.07;;;;;;;19.92;38.46;99419.28;125202;1099;104232;-79
2022/06/22 06:40:06;;;;;;;4.17;1.40;;;;;;;20.09;38.22;99419.81;126108;1099;104236;-77
2022/06/22 06:43:14;;;;;;;9.33;1.47;;;;;;;20.19;37.71;99420.48;125898;1099;104519;-77
2022/06/22 06:45:53;;;;;;;8.33;1.83;;;;;;;20.21;37.72;99426.69;126227;1096;104163;-79
2022/06/22 06:48:35;;;;;;;9.40;1.83;;;;;;;20.16;37.42;99430.34;126228;1099;103375;-79
2022/06/22 06:51:12;;;;;;;10.70;1.67;;;;;;;20.20;37.59;99416.92;126056;1099;102682;-79
2022/06/22 06:53:52;;;;;;;14.10;1.90;;;;;;;20.31;38.22;99439.81;126140;1098;104089;-78
2022/06/22 06:56:32;;;;;;;7.90;1.60;;;;;;;20.41;37.17;99426.26;126049;1099;104227;-77
2022/06/22 06:59:12;;;;;;;10.87;1.90;;;;;;;20.51;36.92;99418.06;126144;1099;104101;-78
2022/06/22 07:01:46;;;;;;;20.80;2.55;;;;;;;20.52;37.59;99418.03;126283;1098;104126;-79
2022/06/22 07:04:31;;;;;;;10.23;2.57;;;;;;;20.54;37.78;99432.19;126059;1099;104255;-78
2022/06/22 07:07:27;;;;;;;8.50;1.67;;;;;;;20.58;38.11;99419.66;126193;1099;103145;-79
2022/06/22 07:10:07;;;;;;;10.73;1.70;;;;;;;20.65;37.84;99421.32;125885;1099;104159;-77
2022/06/22 07:12:52;;;;;;;15.77;2.33;;;;;;;20.71;37.74;99429.18;126148;1099;104121;-79
2022/06/22 07:15:53;;;;;;;17.33;2.43;;;;;;;20.75;37.81;99452.17;127083;1098;101936;-79
2022/06/22 07:18:41;;;;;;;23.63;3.13;;;;;;;20.85;38.02;99407.53;126509;1099;104888;-76
2022/06/22 07:21:21;;;;;;;13.63;1.93;;;;;;;21.01;37.94;99426.70;126123;1099;102650;-80
2022/06/22 07:24:05;;;;;;;12.37;1.87;;;;;;;21.12;38.50;99419.30;126210;1099;104265;-78
2022/06/22 07:26:54;;;;;;;10.30;2.30;;;;;;;21.32;37.07;99404.59;126161;1099;103120;-79
2022/06/22 07:29:44;;;;;;;27.50;2.57;;;;;;;21.41;37.94;99398.13;126060;1099;103738;-78
2022/06/22 07:32:42;;;;;;;15.70;2.55;;;;;;;21.59;37.57;99419.02;125878;1099;102638;-79
2022/06/22 07:35:36;;;;;;;14.53;2.27;;;;;;;21.76;38.09;99441.73;125517;1099;103495;-78
2022/06/22 07:38:24;;;;;;;7.70;1.70;;;;;;;21.66;36.82;99430.41;125611;1099;103163;-77
2022/06/22 07:41:22;;;;;;;12.30;2.00;;;;;;;21.59;36.42;99436.84;125777;1099;103209;-78
2022/06/22 07:43:59;;;;;;;7.33;1.50;;;;;;;21.71;37.32;99423.17;125716;1099;104341;-78
2022/06/22 07:46:40;;;;;;;8.03;1.57;;;;;;;21.92;37.89;99436.84;124508;1102;104258;-77
2022/06/22 07:49:38;;;;;;;8.93;2.00;;;;;;;22.08;37.09;99441.71;125563;1099;103188;-78
2022/06/22 07:53:07;;;;;;;20.83;2.70;;;;;;;22.08;36.73;99417.67;125720;1102;104238;-79
2022/06/22 07:56:13;;;;;;;9.17;1.83;;;;;;;21.77;37.13;99419.44;125644;1102;104191;-78
2022/06/22 07:59:00;;;;;;;18.23;2.07;;;;;;;21.54;36.93;99432.49;125526;1099;104332;-80
2022/06/22 08:01:39;;;;;;;9.17;1.97;;;;;;;21.71;38.07;99447.20;125732;1099;107684;-79
2022/06/22 08:04:36;;;;;;;16.43;2.40;;;;;;;21.70;38.22;99426.75;125761;1099;104271;-79
2022/06/22 08:07:21;;;;;;;11.20;1.80;;;;;;;21.83;37.92;99417.50;126146;1099;103046;-79
2022/06/22 08:10:21;;;;;;;8.70;2.00;;;;;;;21.84;38.13;99437.92;126207;1099;102454;-79
2022/06/22 08:13:04;;;;;;;12.20;2.03;;;;;;;21.68;38.07;99444.61;126213;1099;104271;-78
2022/06/22 08:15:46;;;;;;;13.30;2.80;;;;;;;21.49;38.64;99437.09;124976;1099;104146;-77
2022/06/22 08:18:23;;;;;;;17.57;3.30;;;;;;;21.26;38.60;99453.64;125477;1099;104335;-79
2022/06/22 08:21:00;;;;;;;6.90;1.80;;;;;;;21.12;38.44;99453.98;125459;1102;104162;-79
2022/06/22 08:23:44;;;;;;;8.20;2.30;;;;;;;21.13;38.94;99458.41;125582;1099;104166;-79
2022/06/22 08:26:31;;;;;;;8.27;1.90;;;;;;;21.17;38.56;99448.53;125492;1102;102690;-79
2022/06/22 08:29:22;;;;;;;10.60;1.97;;;;;;;21.19;38.06;99431.59;125495;1099;103473;-80
2022/06/22 08:32:22;;;;;;;6.63;1.93;;;;;;;21.27;38.18;99441.17;126681;1099;102854;-77
2022/06/22 08:35:09;;;;;;;2.17;1.50;;;;;;;21.48;38.68;99437.95;126261;1099;102305;-78
2022/06/22 08:37:59;;;;;;;9.07;2.30;;;;;;;21.59;38.71;99421.69;126217;1102;102496;-80
2022/06/22 08:40:50;;;;;;;14.53;2.10;;;;;;;21.42;38.55;99445.25;126104;1099;102731;-78
2022/06/22 08:43:48;;;;;;;4.50;1.50;;;;;;;21.18;38.32;99472.50;125558;1102;104261;-79
2022/06/22 08:49:57;;;;;;;9.90;1.80;;;;;;;20.91;38.74;99446.48;125396;1102;104168;-78
2022/06/22 08:55:51;;;;;;;16.33;2.33;;;;;;;20.76;39.23;99469.06;125035;1105;102439;-77
2022/06/22 08:58:49;;;;;;;5.37;1.50;;;;;;;20.77;39.65;99445.03;125121;1106;103199;-77
2022/06/22 09:01:33;;;;;;;7.70;1.90;;;;;;;20.90;39.72;99448.28;124252;1105;104294;-77
2022/06/22 09:04:32;;;;;;;5.67;1.70;;;;;;;20.94;39.53;99454.41;124848;1109;102448;-79
2022/06/22 09:11:08;;;;;;;11.70;2.43;;;;;;;21.07;40.32;99447.02;124978;1106;104207;-78
2022/06/22 09:14:15;;;;;;;6.77;1.83;;;;;;;21.21;39.78;99436.88;124916;1109;103506;-78
2022/06/22 09:17:40;;;;;;;9.87;2.13;;;;;;;21.47;40.06;99444.23;125366;1109;102714;-79
2022/06/22 09:23:41;;;;;;;7.37;1.60;;;;;;;21.50;38.96;99441.52;124611;1112;104394;-77
2022/06/22 09:26:25;;;;;;;10.40;2.10;;;;;;;21.44;39.38;99451.42;123544;1112;104261;-77
2022/06/22 09:29:09;;;;;;;5.80;1.77;;;;;;;21.29;39.66;99458.03;123723;1112;104258;-77
2022/06/22 09:32:18;;;;;;;3.80;1.65;;;;;;;21.18;39.70;99453.83;123838;1108;102342;-79
2022/06/22 09:35:27;;;;;;;10.30;2.13;;;;;;;21.02;40.48;99433.80;124036;1109;103814;-78
2022/06/22 09:38:25;;;;;;;5.37;1.70;;;;;;;20.75;40.43;99469.96;123883;1109;103125;-78
2022/06/22 09:41:09;;;;;;;6.23;1.50;;;;;;;20.57;40.65;99469.43;123940;1109;104248;-78
2022/06/22 09:44:33;;;;;;;6.70;1.80;;;;;;;20.45;40.37;99480.34;125010;1109;104185;-79
2022/06/22 09:47:39;;;;;;;7.77;1.83;;;;;;;20.41;41.21;99473.31;124888;1109;104302;-80
2022/06/22 09:50:44;;;;;;;4.23;1.87;;;;;;;20.53;40.70;99474.86;123793;1109;104437;-78
2022/06/22 09:53:45;;;;;;;5.75;1.70;;;;;;;20.49;41.84;99490.05;123681;1109;108824;-78
2022/06/22 09:56:42;;;;;;;3.23;1.33;;;;;;;20.44;41.83;99481.25;124084;1106;104412;-79
2022/06/22 09:59:43;;;;;;;3.07;1.63;;;;;;;20.37;42.34;99483.17;123968;1105;104344;-78
2022/06/22 10:02:27;;;;;;;5.47;2.00;;;;;;;20.35;42.16;99489.43;124175;1104;103237;-77
2022/06/22 10:05:35;;;;;;;8.50;1.97;;;;;;;20.33;41.81;99475.27;124303;1106;104243;-75
2022/06/22 10:08:18;;;;;;;3.00;1.70;;;;;;;20.26;42.94;99480.73;124076;1103;102506;-77
2022/06/22 10:10:58;;;;;;;5.20;1.53;;;;;;;20.27;41.87;99476.27;124088;1103;104261;-77
2022/06/22 10:13:57;;;;;;;9.77;2.00;;;;;;;20.31;42.13;99480.63;124916;1105;104280;-77
2022/06/22 10:16:57;;;;;;;7.50;2.00;;;;;;;20.41;43.43;99476.88;124171;1105;104109;-77
2022/06/22 10:19:54;;;;;;;9.23;2.10;;;;;;;20.61;42.21;99476.42;125131;1105;102840;-78
2022/06/22 10:22:44;;;;;;;5.77;2.10;;;;;;;20.72;42.27;99494.02;124119;1105;104222;-77
2022/06/22 10:25:36;;;;;;;4.33;1.67;;;;;;;20.73;42.60;99491.32;126159;1105;102187;-77
2022/06/22 10:28:26;;;;;;;7.53;2.07;;;;;;;20.78;42.93;99497.42;126050;1105;103204;-77
2022/06/22 10:31:09;;;;;;;1.97;1.60;;;;;;;20.79;41.77;99495.66;124243;1105;104229;-76
2022/06/22 10:34:09;;;;;;;2.47;1.80;;;;;;;20.90;42.92;99485.61;125053;1105;102550;-77
2022/06/22 10:37:17;;;;;;;11.63;2.23;;;;;;;21.24;42.61;99473.25;124237;1105;104278;-77
2022/06/22 10:40:07;;;;;;;4.93;1.53;;;;;;;21.57;41.29;99476.05;125191;1105;104339;-77
2022/06/22 10:46:06;;;;;;;4.17;1.57;;;;;;;21.49;42.06;99470.91;124871;1105;104459;-77
2022/06/22 10:56:43;;;;;;;5.40;1.73;;;;;;;20.93;42.34;99490.02;124949;1109;105449;-78
2022/06/22 10:59:44;;;;;;;5.70;2.07;;;;;;;20.86;43.03;99501.72;124965;1106;104598;-79
2022/06/22 11:03:02;;;;;;;;;;;;;;;20.74;43.29;99501.08;124957;1105;104169;-78
2022/06/22 11:06:11;;;;;;;5.83;2.20;;;;;;;20.68;42.86;99503.88;123908;1108;103746;-78
2022/06/22 11:12:41;;;;;;;6.23;1.87;;;;;;;20.44;43.04;99515.89;124536;1102;104156;-77
2022/06/22 11:15:57;;;;;;;5.67;1.67;;;;;;;20.35;43.05;99508.98;124176;1102;104172;-76
2022/06/22 11:19:17;;;;;;;4.77;1.77;;;;;;;20.34;42.99;99509.88;125303;1101;104111;-77
2022/06/22 11:32:47;;;;;;;4.33;2.33;;;;;;;20.48;43.55;99489.14;123904;1109;104265;-76
2022/06/22 11:35:51;;;;;;;5.83;1.83;;;;;;;20.50;44.15;99499.77;123935;1109;104449;-76
2022/06/22 11:39:04;;;;;;;4.30;1.77;;;;;;;20.53;43.70;99498.84;123892;1108;104537;-77
2022/06/22 11:42:09;;;;;;;6.90;2.20;;;;;;;20.64;44.03;99492.39;123495;1109;104496;-76
2022/06/22 11:48:13;;;;;;;9.00;2.03;;;;;;;20.81;43.51;99501.81;125722;1109;102562;-75
2022/06/22 11:51:15;;;;;;;3.83;1.93;;;;;;;20.86;43.87;99491.05;125617;1109;102239;-76
2022/06/22 11:54:09;;;;;;;8.67;2.00;;;;;;;21.07;43.35;99482.55;125786;1105;102509;-76
2022/06/22 11:57:06;;;;;;;6.90;1.67;;;;;;;21.40;42.58;99476.45;125968;1105;102425;-77
2022/06/22 12:00:02;;;;;;;5.40;2.17;;;;;;;21.73;42.27;99482.73;125961;1105;102949;-76
2022/06/22 12:03:15;;;;;;;5.00;1.90;;;;;;;22.08;42.22;99462.22;124087;1105;105117;-76
2022/06/22 12:06:13;;;;;;;8.90;2.20;;;;;;;22.41;42.64;99459.52;124109;1105;104242;-78
2022/06/22 12:09:16;;;;;;;6.70;2.23;;;;;;;22.31;42.26;99461.56;125008;1105;104361;-78
2022/06/22 12:12:46;;;;;;;5.17;1.90;;;;;;;22.10;41.51;99468.38;124092;1105;103389;-76
2022/06/22 12:15:37;;;;;;;4.63;1.50;;;;;;;21.80;41.86;99483.44;124246;1103;104239;-76
2022/06/22 12:18:25;;;;;;;8.27;2.00;;;;;;;21.70;41.26;99480.14;124406;1102;102288;-77
2022/06/22 12:21:24;;;;;;;5.47;1.73;;;;;;;21.53;42.07;99477.91;125420;1102;104181;-77
2022/06/22 12:24:19;;;;;;;5.53;2.00;;;;;;;21.44;41.53;99488.78;125059;1102;104204;-77
2022/06/22 12:27:15;;;;;;;7.70;1.70;;;;;;;21.49;42.16;99477.11;125495;1102;104549;-77
2022/06/22 12:30:32;;;;;;;5.37;1.90;;;;;;;21.79;41.83;99477.23;125132;1102;102849;-76
2022/06/22 12:33:06;;;;;;;;;;;;;;;22.07;40.44;99479.16;124697;1105;104232;-77
2022/06/22 12:35:54;;;;;;;4.63;1.87;;;;;;;22.28;40.45;99472.31;124882;1105;102867;-77
2022/06/22 12:38:51;;;;;;;2.90;1.40;;;;;;;22.47;40.08;99482.50;124155;1105;104425;-78
2022/06/22 12:41:50;;;;;;;7.73;1.73;;;;;;;22.32;39.54;99468.67;125006;1105;104118;-76
2022/06/22 12:44:46;;;;;;;8.70;1.60;;;;;;;22.25;38.81;99481.31;125926;1105;103123;-76
2022/06/22 12:47:51;;;;;;;2.67;1.43;;;;;;;22.10;39.28;99476.39;125944;1105;102893;-76
2022/06/22 12:51:02;;;;;;;8.23;1.77;;;;;;;21.90;39.55;99469.80;125989;1104;102686;-76
2022/06/22 12:53:43;;;;;;;2.90;1.43;;;;;;;21.87;39.96;99463.67;125910;1105;103878;-77
2022/06/22 12:56:22;;;;;;;5.30;1.70;;;;;;;21.95;39.72;99484.83;125880;1105;109651;-77
2022/06/22 12:59:08;;;;;;;4.07;1.73;;;;;;;22.06;39.69;99482.73;125957;1105;101974;-77
2022/06/22 13:02:04;;;;;;;1.97;1.50;;;;;;;22.03;39.57;99482.81;125978;1105;102508;-75
2022/06/22 13:04:43;;;;;;;4.67;1.63;;;;;;;21.95;40.34;99485.69;125900;1105;102928;-76
2022/06/22 13:07:30;;;;;;;7.37;1.93;;;;;;;21.81;40.29;99478.05;125931;1105;103036;-77
2022/06/22 13:10:37;;;;;;;9.40;2.00;;;;;;;21.66;39.68;99499.81;125920;1102;102945;-79
2022/06/22 13:13:19;;;;;;;13.50;1.93;;;;;;;21.51;40.94;99485.95;126311;1101;102391;-77
2022/06/22 13:16:06;;;;;;;7.77;1.73;;;;;;;21.35;40.87;99474.76;125941;1102;104190;-77
2022/06/22 13:18:47;;;;;;;8.00;1.90;;;;;;;21.32;41.03;99492.64;125025;1102;104109;-75
2022/06/22 13:21:41;;;;;;;2.63;1.50;;;;;;;21.35;41.39;99479.23;125181;1102;104742;-75
2022/06/22 13:24:22;;;;;;;10.13;2.10;;;;;;;21.42;41.97;99475.47;125175;1102;104226;-76
2022/06/22 13:27:08;;;;;;;2.80;1.63;;;;;;;21.55;40.62;99462.75;124321;1102;104618;-75
2022/06/22 13:29:49;;;;;;;11.97;2.10;;;;;;;21.68;40.95;99474.84;124212;1101;104239;-76
2022/06/22 13:32:29;;;;;;;7.65;1.95;;;;;;;21.77;40.56;99471.06;124248;1102;104236;-75
2022/06/22 13:35:05;;;;;;;8.70;2.50;;;;;;;21.85;40.98;99461.05;125207;1102;103127;-75
2022/06/22 13:37:53;;;;;;;6.37;1.50;;;;;;;21.98;40.55;99450.03;125493;1102;103188;-77
2022/06/22 13:40:35;;;;;;;6.00;1.97;;;;;;;22.04;40.21;99445.37;125156;1102;104174;-76